Time;durP1;ratioP1;P1;durP2;ratioP2;P2;SDS_P1;SDS_P2;PMS_P1;PMS_P2;Temp;Humidity;BMP_temperature;BMP_pressure;BME280_temperature;BME280_humidity;BME280_pressure;Samples;Min_cycle;Max_cycle;Signal;HPM_P1;HPM_P2
2023/04/17 00:02:12;;;;;;;32.70;19.45;;;8.80;99.90;;;;;;5053903;28;20550;-67
2023/04/17 00:04:39;;;;;;;31.30;18.30;;;8.80;99.90;;;;;;5053593;28;20037;-66
2023/04/17 00:07:06;;;;;;;29.17;18.35;;;8.80;99.90;;;;;;5053944;28;20048;-66
2023/04/17 00:09:32;;;;;;;32.20;19.60;;;8.80;99.90;;;;;;5054998;28;20123;-66
2023/04/17 00:11:58;;;;;;;30.85;19.10;;;8.70;99.90;;;;;;5054487;28;20455;-67
2023/04/17 00:14:23;;;;;;;28.15;18.25;;;8.60;99.90;;;;;;5050286;28;20062;-67
2023/04/17 00:16:49;;;;;;;26.23;17.30;;;8.70;99.90;;;;;;5053118;28;20055;-67
2023/04/17 00:19:15;;;;;;;28.73;19.02;;;8.70;99.90;;;;;;5056468;28;20399;-67
2023/04/17 00:21:40;;;;;;;31.73;19.48;;;8.70;99.90;;;;;;5049599;28;20049;-66
2023/04/17 00:24:06;;;;;;;29.38;17.95;;;8.70;99.90;;;;;;5049187;28;20062;-66
2023/04/17 00:26:33;;;;;;;29.23;18.42;;;8.70;99.90;;;;;;5052802;28;20095;-67
2023/04/17 00:29:02;;;;;;;27.58;17.73;;;8.60;99.90;;;;;;5054801;28;20127;-67
2023/04/17 00:31:27;;;;;;;30.13;17.90;;;8.60;99.90;;;;;;5050996;28;20041;-66
2023/04/17 00:33:53;;;;;;;30.05;17.38;;;8.60;99.90;;;;;;5058926;28;20537;-67
2023/04/17 00:36:19;;;;;;;28.88;17.42;;;8.60;99.90;;;;;;5049120;28;20178;-66
2023/04/17 00:38:44;;;;;;;25.73;17.27;;;8.60;99.90;;;;;;5046538;28;20033;-67
2023/04/17 00:41:10;;;;;;;25.27;16.95;;;8.70;99.90;;;;;;5051965;28;20045;-67
2023/04/17 00:43:36;;;;;;;26.98;17.55;;;8.70;99.90;;;;;;5049764;28;20483;-67
2023/04/17 00:46:04;;;;;;;24.80;16.75;;;8.70;99.90;;;;;;5046476;28;20048;-67
2023/04/17 00:48:31;;;;;;;29.60;18.35;;;8.70;99.90;;;;;;5050603;28;20159;-66
2023/04/17 00:51:01;;;;;;;29.70;17.55;;;8.70;99.90;;;;;;5048483;28;20072;-66
2023/04/17 00:53:30;;;;;;;27.73;17.70;;;8.70;99.90;;;;;;5046634;28;20064;-66
2023/04/17 00:55:57;;;;;;;25.27;16.85;;;8.70;99.90;;;;;;5047493;28;20041;-67
2023/04/17 00:58:24;;;;;;;28.15;18.45;;;8.70;99.90;;;;;;5049173;28;20170;-66
2023/04/17 01:00:50;;;;;;;29.08;18.05;;;8.60;99.90;;;;;;5055413;28;20456;-67
2023/04/17 01:03:16;;;;;;;27.90;17.77;;;8.60;99.90;;;;;;5058453;28;20041;-66
2023/04/17 01:05:43;;;;;;;26.40;16.80;;;8.70;99.90;;;;;;5058094;28;20067;-67
2023/04/17 01:08:09;;;;;;;29.23;18.25;;;8.70;99.90;;;;;;5061508;28;20143;-68
2023/04/17 01:10:35;;;;;;;28.55;18.60;;;8.60;99.90;;;;;;5064503;28;20537;-68
2023/04/17 01:13:05;;;;;;;27.13;18.38;;;8.60;99.90;;;;;;5056431;28;20146;-68
2023/04/17 01:15:32;;;;;;;29.83;19.02;;;8.60;99.90;;;;;;5049637;28;20052;-68
2023/04/17 01:17:58;;;;;;;28.80;17.77;;;8.60;99.90;;;;;;5057205;28;20048;-68
2023/04/17 01:20:30;;;;;;;29.00;18.02;;;8.50;99.90;;;;;;5056416;28;20040;-67
2023/04/17 01:22:59;;;;;;;28.48;17.70;;;8.60;99.90;;;;;;5055460;28;20037;-67
2023/04/17 01:25:26;;;;;;;27.23;17.77;;;8.70;99.90;;;;;;5050458;28;20079;-67
2023/04/17 01:27:52;;;;;;;30.50;18.40;;;8.60;99.90;;;;;;5055180;28;20424;-68
2023/04/17 01:30:17;;;;;;;28.60;18.73;;;8.60;99.90;;;;;;5069028;28;20195;-65
2023/04/17 01:32:43;;;;;;;30.52;19.98;;;8.70;99.90;;;;;;5055556;28;20132;-65
2023/04/17 01:35:09;;;;;;;31.13;18.67;;;8.60;99.90;;;;;;5052612;28;20067;-67
2023/04/17 01:37:35;;;;;;;31.80;19.38;;;8.60;99.90;;;;;;5052680;28;20088;-67
2023/04/17 01:40:01;;;;;;;29.90;19.10;;;8.60;99.90;;;;;;5052571;28;20167;-66
2023/04/17 01:42:26;;;;;;;31.70;19.95;;;8.60;99.90;;;;;;5067456;28;20410;-67
2023/04/17 01:44:52;;;;;;;29.52;19.40;;;8.50;99.90;;;;;;5052972;28;20045;-66
2023/04/17 01:47:18;;;;;;;30.48;19.17;;;8.50;99.90;;;;;;5059481;28;20480;-67
2023/04/17 01:49:43;;;;;;;32.83;20.15;;;8.50;99.90;;;;;;5058988;28;20049;-66
2023/04/17 01:52:09;;;;;;;34.83;19.70;;;8.50;99.90;;;;;;5056235;28;20211;-67
2023/04/17 01:54:34;;;;;;;34.88;21.25;;;8.60;99.90;;;;;;5051489;28;20047;-66
2023/04/17 01:57:01;;;;;;;35.20;20.92;;;8.50;99.90;;;;;;5053778;28;20044;-67
2023/04/17 01:59:26;;;;;;;38.15;20.90;;;8.50;99.90;;;;;;5067417;28;20210;-67
2023/04/17 02:01:52;;;;;;;37.15;20.80;;;8.50;99.90;;;;;;5066421;28;20534;-67
2023/04/17 02:04:18;;;;;;;40.60;23.40;;;8.60;99.90;;;;;;5059540;28;20054;-67
2023/04/17 02:06:43;;;;;;;35.47;21.83;;;8.50;99.90;;;;;;5057121;28;20350;-67
2023/04/17 02:09:09;;;;;;;36.05;22.40;;;8.40;99.90;;;;;;5060161;28;20472;-67
2023/04/17 02:11:35;;;;;;;35.08;20.98;;;8.50;99.90;;;;;;5052901;28;21183;-67
2023/04/17 02:14:00;;;;;;;37.80;23.00;;;8.50;99.90;;;;;;5055148;28;20048;-68
2023/04/17 02:16:27;;;;;;;37.70;22.33;;;8.50;99.90;;;;;;5047065;28;21472;-66
2023/04/17 02:18:54;;;;;;;37.35;22.17;;;8.60;99.90;;;;;;5051714;28;20086;-66
2023/04/17 02:21:20;;;;;;;36.88;22.75;;;8.60;99.90;;;;;;5050241;28;20051;-67
2023/04/17 02:23:46;;;;;;;39.80;23.95;;;8.50;99.90;;;;;;5047622;28;20090;-66
2023/04/17 02:26:11;;;;;;;38.25;24.13;;;8.50;99.90;;;;;;5044812;28;20593;-66
2023/04/17 02:28:37;;;;;;;38.78;24.13;;;8.50;99.90;;;;;;5038887;28;20098;-66
2023/04/17 02:31:07;;;;;;;41.58;23.55;;;8.50;99.90;;;;;;5041549;28;20470;-66
2023/04/17 02:33:35;;;;;;;39.78;23.80;;;8.40;99.90;;;;;;5038663;28;20044;-66
2023/04/17 02:36:00;;;;;;;40.20;23.83;;;8.40;99.90;;;;;;5043719;28;20053;-66
2023/04/17 02:38:28;;;;;;;40.00;22.67;;;8.40;99.90;;;;;;5042342;28;20055;-66
2023/04/17 02:40:54;;;;;;;34.58;21.75;;;8.40;99.90;;;;;;5044109;28;20483;-67
2023/04/17 02:43:20;;;;;;;44.33;23.95;;;8.40;99.90;;;;;;5043103;28;20053;-66
2023/04/17 02:45:46;;;;;;;43.42;23.63;;;8.40;99.90;;;;;;5044455;28;20244;-66
2023/04/17 02:48:11;;;;;;;43.13;23.98;;;8.40;99.90;;;;;;5044925;28;20044;-66
2023/04/17 02:50:37;;;;;;;35.88;22.20;;;8.40;99.90;;;;;;5046930;28;20510;-66
2023/04/17 02:53:02;;;;;;;39.75;23.23;;;8.40;99.90;;;;;;5045751;28;20091;-66
2023/04/17 02:55:28;;;;;;;39.60;23.45;;;8.40;99.90;;;;;;5044453;28;22372;-66
2023/04/17 02:57:53;;;;;;;46.45;25.45;;;8.50;99.90;;;;;;5048358;28;20029;-66
2023/04/17 03:00:19;;;;;;;42.80;24.45;;;8.40;99.90;;;;;;5039223;28;20045;-66
2023/04/17 03:02:45;;;;;;;40.30;23.65;;;8.40;99.90;;;;;;5040756;28;20044;-66
2023/04/17 03:05:13;;;;;;;49.03;25.45;;;8.40;99.90;;;;;;5041172;28;20044;-66
2023/04/17 03:07:39;;;;;;;48.95;26.27;;;8.40;99.90;;;;;;5044840;28;20075;-66
2023/04/17 03:10:05;;;;;;;43.65;25.10;;;8.40;99.90;;;;;;5052002;28;20068;-66
2023/04/17 03:12:31;;;;;;;45.33;26.00;;;8.40;99.90;;;;;;5059181;28;20052;-66
2023/04/17 03:14:56;;;;;;;40.47;23.98;;;8.50;99.90;;;;;;5056338;28;20041;-66
2023/04/17 03:17:22;;;;;;;49.10;27.00;;;8.50;99.90;;;;;;5058031;28;20418;-67
2023/04/17 03:19:47;;;;;;;44.63;25.88;;;8.50;99.90;;;;;;5054003;28;20135;-67
2023/04/17 03:22:13;;;;;;;43.78;25.38;;;8.50;99.90;;;;;;5057119;28;20455;-66
2023/04/17 03:24:40;;;;;;;40.08;24.77;;;8.50;99.90;;;;;;5056088;28;20052;-66
2023/04/17 03:27:06;;;;;;;42.35;25.40;;;8.50;99.90;;;;;;5054229;28;20036;-66
2023/04/17 03:29:31;;;;;;;44.42;24.20;;;8.50;99.90;;;;;;5056508;28;20052;-66
2023/04/17 03:31:57;;;;;;;42.97;24.60;;;8.50;99.90;;;;;;5058296;28;20044;-67
2023/04/17 03:34:23;;;;;;;44.35;26.15;;;8.60;99.90;;;;;;5059402;28;20048;-66
2023/04/17 03:36:48;;;;;;;43.60;25.02;;;8.60;99.90;;;;;;5057131;28;20090;-66
2023/04/17 03:39:14;;;;;;;50.58;27.17;;;8.50;99.90;;;;;;5052304;28;20429;-67
2023/04/17 03:41:40;;;;;;;43.90;25.38;;;8.50;99.90;;;;;;5061092;28;20110;-66
2023/04/17 03:44:07;;;;;;;48.28;25.83;;;8.50;99.90;;;;;;5055457;28;20037;-66
2023/04/17 03:46:33;;;;;;;47.63;26.70;;;8.50;99.90;;;;;;5049244;28;20152;-66
2023/04/17 03:48:58;;;;;;;43.97;26.35;;;8.50;99.90;;;;;;5048401;28;20460;-66
2023/04/17 03:51:26;;;;;;;46.40;27.08;;;8.50;99.90;;;;;;5055463;28;20036;-67
2023/04/17 03:53:52;;;;;;;42.50;25.58;;;8.60;99.90;;;;;;5056157;28;20084;-67
2023/04/17 03:56:17;;;;;;;44.28;24.77;;;8.50;99.90;;;;;;5055369;28;20526;-67
2023/04/17 03:58:43;;;;;;;45.55;25.90;;;8.60;99.90;;;;;;5065894;28;20449;-67
2023/04/17 04:01:13;;;;;;;42.42;26.33;;;8.60;99.90;;;;;;5062919;28;20036;-67
2023/04/17 04:03:40;;;;;;;49.40;27.40;;;8.60;99.90;;;;;;5064916;28;20053;-66
2023/04/17 04:06:08;;;;;;;45.25;25.65;;;8.50;99.90;;;;;;5061176;28;20128;-67
2023/04/17 04:08:34;;;;;;;41.83;26.65;;;8.50;99.90;;;;;;5056682;28;20044;-66
2023/04/17 04:11:00;;;;;;;43.60;26.08;;;8.50;99.90;;;;;;5058947;28;20040;-66
2023/04/17 04:13:26;;;;;;;46.05;27.40;;;8.50;99.90;;;;;;5054994;28;20213;-66
2023/04/17 04:15:52;;;;;;;41.38;25.48;;;8.50;99.90;;;;;;5047365;28;20419;-66
2023/04/17 04:18:17;;;;;;;46.22;27.15;;;8.60;99.90;;;;;;5048114;28;20045;-66
2023/04/17 04:20:43;;;;;;;41.67;24.60;;;8.60;99.90;;;;;;5048467;28;20630;-66
2023/04/17 04:23:09;;;;;;;46.47;26.35;;;8.60;99.90;;;;;;5051534;28;20055;-66
2023/04/17 04:25:35;;;;;;;45.35;26.88;;;8.60;99.90;;;;;;5048892;28;20491;-66
2023/04/17 04:28:01;;;;;;;40.20;24.85;;;8.60;99.90;;;;;;5043652;28;20080;-66
2023/04/17 04:30:29;;;;;;;44.08;26.17;;;8.60;99.90;;;;;;5043716;28;20053;-66
2023/04/17 04:32:55;;;;;;;43.00;26.08;;;8.50;99.90;;;;;;5044483;28;20044;-66
2023/04/17 04:35:24;;;;;;;47.67;26.08;;;8.50;99.90;;;;;;5054237;28;20492;-66
2023/04/17 04:37:53;;;;;;;46.67;27.05;;;8.50;99.90;;;;;;5038703;28;20052;-66
2023/04/17 04:40:20;;;;;;;48.17;26.85;;;8.50;99.90;;;;;;5063687;28;20145;-66
2023/04/17 04:42:48;;;;;;;45.75;27.77;;;8.50;99.90;;;;;;5051547;28;20090;-66
2023/04/17 04:45:14;;;;;;;47.70;26.83;;;8.50;99.90;;;;;;5059839;28;20064;-67
2023/04/17 04:47:40;;;;;;;45.15;25.75;;;8.50;99.90;;;;;;5053637;28;20072;-67
2023/04/17 04:50:06;;;;;;;45.83;26.05;;;8.50;99.90;;;;;;5056263;28;20144;-67
2023/04/17 04:52:32;;;;;;;41.03;25.23;;;8.50;99.90;;;;;;5053207;28;20101;-67
2023/04/17 04:54:57;;;;;;;42.25;25.48;;;8.50;99.90;;;;;;5053093;28;20044;-67
2023/04/17 04:57:23;;;;;;;42.85;26.02;;;8.50;99.90;;;;;;5055603;28;20044;-66
2023/04/17 04:59:48;;;;;;;40.72;25.45;;;8.50;99.90;;;;;;5057723;28;20442;-66
2023/04/17 05:02:14;;;;;;;42.53;25.35;;;8.50;99.90;;;;;;5052639;28;20039;-66
2023/04/17 05:04:40;;;;;;;43.45;25.75;;;8.40;99.90;;;;;;5052735;28;20041;-66
2023/04/17 05:07:06;;;;;;;39.53;25.05;;;8.50;99.90;;;;;;5055348;28;20053;-65
2023/04/17 05:09:32;;;;;;;43.95;26.63;;;8.50;99.90;;;;;;5058570;28;20052;-66
2023/04/17 05:11:57;;;;;;;45.03;26.80;;;8.60;99.90;;;;;;5062470;28;20048;-67
2023/04/17 05:14:23;;;;;;;42.67;25.45;;;8.50;99.90;;;;;;5061505;28;20052;-66
2023/04/17 05:16:49;;;;;;;42.45;26.23;;;8.50;99.90;;;;;;5056365;28;20040;-66
2023/04/17 05:19:15;;;;;;;45.70;26.27;;;8.50;99.90;;;;;;5058400;28;20055;-66
2023/04/17 05:21:41;;;;;;;46.38;28.15;;;8.50;99.90;;;;;;5060545;28;20376;-66
2023/04/17 05:24:06;;;;;;;48.80;27.98;;;8.50;99.90;;;;;;5053929;28;20052;-66
2023/04/17 05:26:32;;;;;;;39.80;24.77;;;8.50;99.90;;;;;;5059088;28;20062;-67
2023/04/17 05:28:57;;;;;;;40.90;25.30;;;8.40;99.90;;;;;;5055750;28;20071;-68
2023/04/17 05:31:23;;;;;;;38.30;24.60;;;8.40;99.90;;;;;;5054431;28;20653;-67
2023/04/17 05:33:49;;;;;;;43.83;24.83;;;8.40;99.90;;;;;;5052335;28;20907;-66
2023/04/17 05:36:14;;;;;;;44.60;26.20;;;8.50;99.90;;;;;;5054650;28;20093;-68
2023/04/17 05:38:40;;;;;;;39.67;24.10;;;8.40;99.90;;;;;;5047744;28;20106;-66
2023/04/17 05:41:09;;;;;;;40.65;24.35;;;8.40;99.90;;;;;;5045680;28;20198;-66
2023/04/17 05:43:34;;;;;;;41.40;24.48;;;8.40;99.90;;;;;;5050980;28;20056;-65
2023/04/17 05:46:00;;;;;;;43.60;24.48;;;8.40;99.90;;;;;;5055395;28;20378;-65
2023/04/17 05:48:26;;;;;;;42.80;25.40;;;8.40;99.90;;;;;;5055824;28;20044;-65
2023/04/17 05:50:51;;;;;;;39.70;24.65;;;8.30;99.90;;;;;;5055873;28;20056;-66
2023/04/17 05:53:17;;;;;;;41.90;25.80;;;8.30;99.90;;;;;;5060042;28;20531;-65
2023/04/17 05:55:42;;;;;;;44.50;26.23;;;8.30;99.90;;;;;;5066068;28;20049;-66
2023/04/17 05:58:08;;;;;;;44.00;24.45;;;8.30;99.90;;;;;;5061336;28;20063;-67
2023/04/17 06:00:34;;;;;;;46.25;26.77;;;8.30;99.90;;;;;;5060499;28;20064;-66
2023/04/17 06:03:00;;;;;;;42.90;25.27;;;8.40;99.90;;;;;;5066612;28;20116;-66
2023/04/17 06:05:26;;;;;;;42.80;24.52;;;8.30;99.90;;;;;;5060198;28;20047;-66
2023/04/17 06:07:52;;;;;;;44.95;25.80;;;8.30;99.90;;;;;;5068970;28;20036;-67
2023/04/17 06:10:18;;;;;;;41.85;24.85;;;8.30;99.90;;;;;;5061977;28;20170;-67
2023/04/17 06:12:44;;;;;;;41.72;24.38;;;8.30;99.90;;;;;;5052281;28;20033;-67
2023/04/17 06:15:10;;;;;;;43.15;25.13;;;8.40;99.90;;;;;;5059922;28;20116;-67
2023/04/17 06:17:37;;;;;;;39.13;23.58;;;8.30;99.90;;;;;;5060434;28;20052;-67
2023/04/17 06:20:10;;;;;;;37.88;23.00;;;8.40;99.90;;;;;;5063389;28;20037;-67
2023/04/17 06:22:37;;;;;;;39.38;24.33;;;8.40;99.90;;;;;;5063370;28;20074;-67
2023/04/17 06:25:03;;;;;;;35.88;22.45;;;8.40;99.90;;;;;;5063947;28;20048;-67
2023/04/17 06:27:29;;;;;;;39.45;23.70;;;8.50;99.90;;;;;;5061589;28;20044;-67
2023/04/17 06:29:54;;;;;;;37.00;22.40;;;8.50;99.90;;;;;;5064109;28;20376;-67
2023/04/17 06:32:20;;;;;;;37.55;23.35;;;8.60;99.90;;;;;;5063660;28;20041;-67
2023/04/17 06:34:46;;;;;;;39.22;24.20;;;8.60;99.90;;;;;;5062589;28;20033;-67
2023/04/17 06:37:11;;;;;;;39.90;24.45;;;8.70;99.90;;;;;;5054270;28;20064;-67
2023/04/17 06:39:37;;;;;;;38.22;22.95;;;8.60;99.90;;;;;;5052963;28;20033;-66
2023/04/17 06:42:02;;;;;;;41.55;25.02;;;8.70;99.90;;;;;;5052506;28;20191;-66
2023/04/17 06:44:28;;;;;;;35.53;22.90;;;8.60;99.90;;;;;;5052932;28;20080;-66
2023/04/17 06:46:53;;;;;;;36.38;23.63;;;8.60;99.90;;;;;;5052970;28;20089;-66
2023/04/17 06:49:19;;;;;;;38.38;24.50;;;8.60;99.90;;;;;;5052475;28;20109;-66
2023/04/17 06:51:46;;;;;;;36.55;22.30;;;8.60;99.90;;;;;;5051880;28;20041;-67
2023/04/17 06:54:12;;;;;;;37.85;23.85;;;8.60;99.90;;;;;;5052094;28;20056;-66
2023/04/17 06:56:39;;;;;;;37.85;22.65;;;8.70;99.90;;;;;;5052753;28;20508;-66
2023/04/17 06:59:05;;;;;;;38.08;23.60;;;8.60;99.90;;;;;;5051829;28;20051;-66
2023/04/17 07:01:31;;;;;;;38.85;23.67;;;8.70;99.90;;;;;;5060296;28;20036;-66
2023/04/17 07:03:56;;;;;;;38.28;24.15;;;8.70;99.90;;;;;;5066276;28;20051;-66
2023/04/17 07:06:23;;;;;;;37.30;23.30;;;8.80;99.90;;;;;;5062154;28;20041;-66
2023/04/17 07:08:49;;;;;;;38.10;23.80;;;8.80;99.90;;;;;;5071146;28;20041;-66
2023/04/17 07:11:15;;;;;;;36.47;22.40;;;8.80;99.90;;;;;;5065380;28;20079;-67
2023/04/17 07:13:41;;;;;;;33.65;21.48;;;8.90;99.90;;;;;;5059562;28;20055;-67
2023/04/17 07:16:07;;;;;;;35.10;22.85;;;9.00;99.90;;;;;;5061928;28;20353;-66
2023/04/17 07:18:33;;;;;;;33.60;21.65;;;9.10;99.90;;;;;;5060090;28;20101;-67
2023/04/17 07:20:58;;;;;;;32.90;22.58;;;9.10;99.90;;;;;;5053883;28;20041;-66
2023/04/17 07:23:24;;;;;;;32.00;20.58;;;9.20;99.90;;;;;;5055278;28;20116;-67
2023/04/17 07:25:49;;;;;;;34.30;21.42;;;9.20;99.90;;;;;;5051039;28;20436;-67
2023/04/17 07:28:15;;;;;;;31.83;20.85;;;9.20;99.90;;;;;;5058526;28;20079;-67
2023/04/17 07:30:41;;;;;;;31.20;19.73;;;9.20;99.90;;;;;;5051871;28;20044;-67
2023/04/17 07:33:07;;;;;;;29.98;20.70;;;9.30;99.90;;;;;;5056088;28;20043;-66
2023/04/17 07:35:33;;;;;;;28.45;19.55;;;9.40;99.90;;;;;;5054017;28;20120;-66
2023/04/17 07:38:00;;;;;;;33.03;21.77;;;9.50;99.90;;;;;;5058468;28;20051;-66
2023/04/17 07:40:27;;;;;;;34.55;22.25;;;9.60;99.90;;;;;;5057858;28;20064;-67
2023/04/17 07:42:54;;;;;;;34.70;21.90;;;9.70;99.90;;;;;;5063155;28;20102;-66
2023/04/17 07:45:20;;;;;;;35.47;22.88;;;9.70;99.90;;;;;;5058145;28;20083;-66
2023/04/17 07:47:46;;;;;;;35.65;22.88;;;9.80;99.90;;;;;;5062240;28;20130;-66
2023/04/17 07:50:12;;;;;;;32.70;22.10;;;9.90;99.90;;;;;;5069100;28;20389;-66
2023/04/17 07:52:37;;;;;;;34.15;21.52;;;9.90;99.90;;;;;;5067312;28;20102;-66
2023/04/17 07:55:03;;;;;;;29.23;20.73;;;9.90;99.90;;;;;;5066247;28;20127;-66
2023/04/17 07:57:29;;;;;;;30.67;20.92;;;9.90;99.90;;;;;;5068940;28;20036;-66
2023/04/17 07:59:55;;;;;;;30.98;21.42;;;10.10;99.90;;;;;;5066006;28;20032;-66
2023/04/17 08:02:21;;;;;;;32.00;21.67;;;10.10;99.90;;;;;;5069445;28;20045;-66
2023/04/17 08:04:47;;;;;;;30.33;21.15;;;10.30;99.90;;;;;;5066129;28;20052;-66
2023/04/17 08:07:13;;;;;;;29.75;20.25;;;10.30;99.90;;;;;;5051869;28;20087;-66
2023/04/17 08:09:39;;;;;;;29.90;20.95;;;10.40;99.90;;;;;;5059572;28;20131;-66
2023/04/17 08:12:05;;;;;;;29.70;20.83;;;10.50;99.90;;;;;;5058545;28;20116;-66
2023/04/17 08:14:31;;;;;;;30.13;20.75;;;10.60;99.90;;;;;;5061656;28;20055;-66
2023/04/17 08:16:57;;;;;;;30.90;21.40;;;10.70;99.90;;;;;;5053058;28;20075;-66
2023/04/17 08:19:22;;;;;;;29.95;20.40;;;10.70;99.90;;;;;;5055162;28;21376;-67
2023/04/17 08:21:49;;;;;;;30.63;20.42;;;10.80;99.90;;;;;;5056688;28;20120;-67
2023/04/17 08:24:16;;;;;;;30.98;20.65;;;10.70;99.90;;;;;;5069853;28;20036;-67
2023/04/17 08:26:42;;;;;;;28.60;19.95;;;10.80;99.90;;;;;;5059371;28;20474;-68
2023/04/17 08:29:07;;;;;;;28.83;19.70;;;10.80;99.90;;;;;;5065151;28;20072;-68
2023/04/17 08:31:35;;;;;;;28.00;19.77;;;11.00;99.90;;;;;;5062170;28;20063;-68
2023/04/17 08:34:02;;;;;;;29.17;19.77;;;11.00;99.90;;;;;;5059784;28;20135;-68
2023/04/17 08:36:28;;;;;;;28.58;18.85;;;11.20;99.90;;;;;;5059405;28;20128;-68
2023/04/17 08:38:54;;;;;;;27.67;19.80;;;11.30;99.90;;;;;;5061027;28;20429;-67
2023/04/17 08:41:23;;;;;;;30.15;20.75;;;11.40;99.90;;;;;;5057880;28;20041;-67
2023/04/17 08:43:52;;;;;;;29.00;20.30;;;11.60;99.90;;;;;;5054614;28;20107;-68
2023/04/17 08:46:21;;;;;;;29.65;20.73;;;11.60;99.90;;;;;;5052415;28;20410;-67
2023/04/17 08:48:46;;;;;;;30.13;21.13;;;11.70;99.90;;;;;;5052413;28;20202;-67
2023/04/17 08:51:13;;;;;;;26.27;18.73;;;11.80;99.90;;;;;;5051956;28;20075;-68
2023/04/17 08:53:38;;;;;;;29.10;19.45;;;11.70;99.90;;;;;;5053386;28;20563;-68
2023/04/17 08:56:05;;;;;;;28.63;19.80;;;11.70;99.90;;;;;;5048152;28;20263;-67
2023/04/17 08:58:34;;;;;;;27.90;19.38;;;11.60;99.90;;;;;;5049496;28;20120;-67
2023/04/17 09:01:15;;;;;;;29.17;20.48;;;11.60;99.90;;;;;;5054105;28;20032;-67
2023/04/17 09:03:43;;;;;;;28.15;19.52;;;11.70;99.90;;;;;;5065009;28;20055;-68
2023/04/17 09:06:10;;;;;;;27.23;19.50;;;11.60;99.90;;;;;;5059384;28;20201;-67
2023/04/17 09:08:36;;;;;;;27.52;19.30;;;11.70;99.90;;;;;;5057366;28;20048;-67
2023/04/17 09:11:02;;;;;;;28.77;20.52;;;11.80;99.90;;;;;;5062331;28;20327;-67
2023/04/17 09:13:29;;;;;;;27.38;19.58;;;11.80;99.90;;;;;;5063500;28;20052;-67
2023/04/17 09:16:14;;;;;;;25.75;19.08;;;11.90;99.90;;;;;;5056555;28;20084;-67
2023/04/17 09:18:45;;;;;;;28.33;19.77;;;12.00;99.90;;;;;;5057911;28;20045;-67
2023/04/17 09:21:12;;;;;;;26.75;19.67;;;12.00;99.90;;;;;;5056239;28;20550;-67
2023/04/17 09:23:53;;;;;;;25.58;18.33;;;12.10;99.90;;;;;;5058631;28;20174;-67
2023/04/17 09:26:25;;;;;;;26.25;19.27;;;12.30;99.90;;;;;;5058013;28;20068;-68
2023/04/17 09:29:09;;;;;;;26.88;19.27;;;12.30;99.90;;;;;;5050958;28;20055;-67
2023/04/17 09:31:37;;;;;;;27.35;19.17;;;12.50;99.90;;;;;;5049299;28;20735;-66
2023/04/17 09:34:04;;;;;;;24.23;18.25;;;12.50;99.90;;;;;;5057841;28;20072;-66
2023/04/17 09:36:37;;;;;;;27.67;19.83;;;12.70;99.90;;;;;;5055666;28;20045;-67
2023/04/17 09:39:14;;;;;;;27.48;19.98;;;12.70;99.90;;;;;;5053615;28;20191;-67
2023/04/17 09:41:40;;;;;;;29.33;19.50;;;12.80;99.90;;;;;;5053689;28;20056;-67
2023/04/17 09:44:06;;;;;;;28.10;19.90;;;12.80;99.90;;;;;;5059640;28;20376;-67
2023/04/17 09:46:44;;;;;;;24.95;19.25;;;13.00;99.90;;;;;;5062447;28;20052;-67
2023/04/17 09:49:32;;;;;;;27.27;19.98;;;13.10;99.90;;;;;;5062466;28;20063;-66
2023/04/17 09:51:58;;;;;;;29.05;21.75;;;13.10;99.90;;;;;;5063670;28;20468;-67
2023/04/17 09:54:24;;;;;;;28.35;20.67;;;13.10;99.90;;;;;;5064232;28;20048;-66
2023/04/17 09:56:54;;;;;;;28.30;20.98;;;13.10;99.90;;;;;;5064566;28;20036;-67
2023/04/17 09:59:22;;;;;;;29.15;21.63;;;13.30;99.90;;;;;;5059423;28;20671;-67
2023/04/17 10:01:49;;;;;;;29.85;21.65;;;13.30;99.90;;;;;;5059466;28;20047;-67
2023/04/17 10:04:14;;;;;;;29.48;21.60;;;13.40;99.90;;;;;;5064185;28;20036;-67
2023/04/17 10:06:40;;;;;;;29.33;21.60;;;13.50;99.90;;;;;;5058044;28;20040;-66
2023/04/17 10:09:07;;;;;;;29.90;21.52;;;13.60;99.90;;;;;;5063161;28;20137;-66
2023/04/17 10:11:39;;;;;;;29.88;21.58;;;13.60;99.90;;;;;;5065708;28;20170;-67
2023/04/17 10:14:23;;;;;;;27.65;21.70;;;13.80;99.90;;;;;;5065235;28;20056;-66
2023/04/17 10:16:49;;;;;;;28.65;21.58;;;13.90;99.90;;;;;;5072482;28;20040;-66
2023/04/17 10:19:31;;;;;;;29.75;22.58;;;14.10;99.90;;;;;;5063584;28;20441;-66
2023/04/17 10:22:14;;;;;;;28.67;22.48;;;14.30;99.90;;;;;;5059474;28;20052;-66
2023/04/17 10:25:03;;;;;;;28.77;22.67;;;14.50;99.90;;;;;;5060260;28;20503;-67
2023/04/17 10:27:31;;;;;;;30.60;23.95;;;14.60;99.90;;;;;;5063031;28;20195;-66
2023/04/17 10:29:59;;;;;;;30.70;22.92;;;14.50;99.90;;;;;;5060654;28;20044;-66
2023/04/17 10:32:27;;;;;;;31.35;22.17;;;14.50;99.90;;;;;;5053320;28;20123;-67
2023/04/17 10:34:56;;;;;;;29.70;23.10;;;14.70;99.90;;;;;;5049189;28;20051;-67
2023/04/17 10:37:48;;;;;;;28.25;22.65;;;14.70;99.90;;;;;;5053973;28;20040;-67
2023/04/17 10:40:22;;;;;;;28.45;22.05;;;14.90;99.90;;;;;;5054879;28;20077;-67
2023/04/17 10:43:04;;;;;;;28.00;21.30;;;14.90;99.90;;;;;;5050830;28;20064;-67
2023/04/17 10:45:52;;;;;;;25.17;21.33;;;14.90;99.90;;;;;;5046994;28;20138;-67
2023/04/17 10:48:45;;;;;;;27.30;20.95;;;15.10;99.90;;;;;;5046278;28;20036;-67
2023/04/17 10:51:23;;;;;;;25.08;19.98;;;15.20;99.90;;;;;;5045332;28;20127;-67
2023/04/17 10:53:56;;;;;;;25.83;20.95;;;15.50;99.90;;;;;;5047737;28;20049;-68
2023/04/17 10:56:37;;;;;;;24.67;21.50;;;15.50;99.90;;;;;;5050735;28;20131;-66
2023/04/17 10:59:10;;;;;;;25.95;21.08;;;15.60;99.90;;;;;;5054491;28;20039;-67
2023/04/17 11:01:38;;;;;;;26.98;20.60;;;15.80;99.90;;;;;;5054809;28;20045;-67
2023/04/17 11:04:05;;;;;;;23.45;19.10;;;16.00;99.90;;;;;;5049333;28;20610;-67
2023/04/17 11:06:37;;;;;;;24.55;20.88;;;16.10;99.90;;;;;;5045626;28;20044;-67
2023/04/17 11:09:07;;;;;;;25.50;21.48;;;16.10;99.90;;;;;;5048986;28;20044;-67
2023/04/17 11:11:40;;;;;;;26.25;20.60;;;16.10;99.90;;;;;;5046746;28;20110;-66
2023/04/17 11:14:14;;;;;;;23.20;19.88;;;16.00;99.90;;;;;;5048563;28;20055;-68
2023/04/17 11:16:41;;;;;;;26.15;19.60;;;15.80;99.90;;;;;;5049636;28;20452;-68
2023/04/17 11:19:12;;;;;;;20.02;17.23;;;15.80;99.90;;;;;;5044729;28;20051;-68
2023/04/17 11:21:46;;;;;;;19.42;16.20;;;15.90;99.90;;;;;;5050383;28;20051;-67
2023/04/17 11:24:11;;;;;;;21.50;16.23;;;15.90;99.90;;;;;;5048301;28;20468;-67
2023/04/17 11:26:44;;;;;;;21.45;17.17;;;16.00;99.90;;;;;;5061316;28;20306;-69
2023/04/17 11:29:18;;;;;;;19.13;15.10;;;16.20;99.90;;;;;;5046554;28;20052;-68
2023/04/17 11:31:48;;;;;;;22.42;16.88;;;16.40;99.90;;;;;;5043507;28;20048;-68
2023/04/17 11:34:15;;;;;;;21.15;17.23;;;16.70;99.90;;;;;;5044912;28;20036;-68
2023/04/17 11:36:55;;;;;;;21.27;16.13;;;16.80;99.90;;;;;;5042311;28;20092;-68
2023/04/17 11:39:22;;;;;;;19.80;16.63;;;16.50;99.90;;;;;;5047999;28;21124;-68
2023/04/17 11:41:50;;;;;;;20.17;15.20;;;16.20;99.90;;;;;;5053880;28;20521;-68
2023/04/17 11:44:17;;;;;;;17.77;13.60;;;16.20;99.90;;;;;;5057258;28;20043;-68
2023/04/17 11:46:55;;;;;;;16.23;13.80;;;16.20;99.90;;;;;;5051659;28;20468;-68
2023/04/17 11:49:28;;;;;;;16.63;13.75;;;16.10;99.90;;;;;;5056491;28;20076;-68
2023/04/17 11:51:54;;;;;;;19.23;13.57;;;16.00;99.90;;;;;;5056453;28;20037;-68
2023/04/17 11:54:30;;;;;;;17.20;13.50;;;16.00;99.90;;;;;;5058210;28;20148;-68
2023/04/17 11:57:24;;;;;;;17.85;13.50;;;16.30;99.90;;;;;;5071495;28;20135;-68
2023/04/17 11:59:50;;;;;;;17.45;13.48;;;16.30;99.90;;;;;;5046351;28;20083;-68
2023/04/17 12:02:16;;;;;;;18.13;13.52;;;16.20;99.90;;;;;;5064221;28;20037;-68
2023/04/17 12:04:41;;;;;;;14.27;11.75;;;16.10;99.90;;;;;;5064934;28;20044;-68
2023/04/17 12:07:19;;;;;;;15.45;12.48;;;16.00;99.90;;;;;;5051173;28;20795;-68
2023/04/17 12:09:55;;;;;;;15.63;12.45;;;15.80;99.90;;;;;;5058993;28;20048;-68
2023/04/17 12:12:20;;;;;;;15.85;11.45;;;15.70;99.90;;;;;;5048723;28;20360;-68
2023/04/17 12:14:46;;;;;;;15.45;12.32;;;15.60;99.90;;;;;;5066377;28;20040;-68
2023/04/17 12:17:11;;;;;;;15.57;12.00;;;15.80;99.90;;;;;;5052706;28;20467;-68
2023/04/17 12:19:37;;;;;;;14.23;11.73;;;16.00;99.90;;;;;;5065795;28;20037;-68
2023/04/17 12:22:03;;;;;;;14.57;11.43;;;16.20;99.90;;;;;;5058141;28;20131;-68
2023/04/17 12:24:28;;;;;;;13.07;10.73;;;16.50;99.90;;;;;;5063465;28;20064;-68
2023/04/17 12:26:54;;;;;;;12.10;9.45;;;16.60;99.90;;;;;;5050228;28;20045;-68
2023/04/17 12:29:20;;;;;;;14.55;10.38;;;16.80;99.90;;;;;;5050608;28;20399;-68
2023/04/17 12:31:46;;;;;;;14.00;10.75;;;16.90;99.90;;;;;;5055272;28;20127;-68
2023/04/17 12:34:11;;;;;;;13.63;10.18;;;16.80;99.90;;;;;;5056060;28;20044;-68
2023/04/17 12:36:37;;;;;;;14.90;11.05;;;16.60;99.90;;;;;;5055937;28;20060;-68